createdAt,value
2022-09-07T00:00:11.069Z,99406.49
2022-09-07T00:01:11.063Z,99402.21
2022-09-07T00:02:11.065Z,99403.14
2022-09-07T00:03:11.190Z,99402.17
2022-09-07T00:04:11.105Z,99404.26
2022-09-07T00:05:11.071Z,99397.94
2022-09-07T00:06:11.060Z,99399.09
2022-09-07T00:07:11.069Z,99398.19
2022-09-07T00:08:11.072Z,99400.33
2022-09-07T00:09:11.065Z,99400.58
2022-09-07T00:10:11.063Z,99399.71
2022-09-07T00:11:13.072Z,99402.65
2022-09-07T00:12:11.065Z,99395.43
2022-09-07T00:13:11.063Z,99397.07
2022-09-07T00:14:11.071Z,99393.93
2022-09-07T00:15:13.070Z,99392.61
2022-09-07T00:16:15.139Z,99392.24
2022-09-07T00:17:11.069Z,99392.63
2022-09-07T00:18:11.072Z,99391.37
2022-09-07T00:19:11.066Z,99394.61
2022-09-07T00:20:11.062Z,99392.03
2022-09-07T00:21:11.067Z,99392.78
2022-09-07T00:22:11.059Z,99392.23
2022-09-07T00:23:11.054Z,99392.01
2022-09-07T00:24:11.061Z,99392.50
2022-09-07T00:25:11.058Z,99390.54
2022-09-07T00:26:11.057Z,99392.29
2022-09-07T00:27:11.063Z,99391.00
2022-09-07T00:28:11.061Z,99392.73
2022-09-07T00:29:11.058Z,99389.55
2022-09-07T00:30:11.061Z,99389.78
2022-09-07T00:31:14.130Z,99381.10
2022-09-07T00:32:11.061Z,99380.89
2022-09-07T00:33:11.062Z,99380.85
2022-09-07T00:34:11.061Z,99378.52
2022-09-07T00:35:11.060Z,99375.69
2022-09-07T00:36:11.057Z,99376.82
2022-09-07T00:37:11.062Z,99378.54
2022-09-07T00:38:11.063Z,99376.20
2022-09-07T00:39:11.059Z,99374.73
2022-09-07T00:40:11.120Z,99374.71
2022-09-07T00:41:11.062Z,99378.62
2022-09-07T00:42:11.059Z,99375.96
2022-09-07T00:43:16.064Z,99381.51
2022-09-07T00:44:19.063Z,99381.31
2022-09-07T00:45:19.063Z,99380.34
2022-09-07T00:46:18.138Z,99378.56
2022-09-07T00:47:19.062Z,99381.49
2022-09-07T00:48:15.077Z,99375.44
2022-09-07T00:49:16.062Z,99375.63
2022-09-07T00:50:16.064Z,99378.62
2022-09-07T00:51:14.062Z,99374.34
2022-09-07T00:52:11.071Z,99375.20
2022-09-07T00:53:19.061Z,99374.68
2022-09-07T00:54:14.063Z,99374.12
2022-09-07T00:55:13.062Z,99374.76
2022-09-07T00:56:11.078Z,99378.04
2022-09-07T00:57:11.064Z,99375.66
2022-09-07T00:58:11.062Z,99373.35
2022-09-07T00:59:13.066Z,99375.39
2022-09-07T01:00:11.064Z,99374.57
2022-09-07T01:01:11.062Z,99371.48
2022-09-07T01:02:11.192Z,99372.01
2022-09-07T01:03:11.070Z,99370.34
2022-09-07T01:04:11.063Z,99373.46
2022-09-07T01:05:19.068Z,99372.36
2022-09-07T01:06:16.073Z,99372.48
2022-09-07T01:07:11.064Z,99374.66
2022-09-07T01:08:11.064Z,99374.51
2022-09-07T01:09:12.063Z,99373.71
2022-09-07T01:10:11.069Z,99371.04
2022-09-07T01:11:11.063Z,99374.14
2022-09-07T01:12:11.066Z,99369.12
2022-09-07T01:13:11.067Z,99369.89
2022-09-07T01:14:11.065Z,99370.34
2022-09-07T01:15:11.066Z,99367.43
2022-09-07T01:16:21.118Z,99366.87
2022-09-07T01:17:19.069Z,99365.76
2022-09-07T01:18:21.070Z,99367.35
2022-09-07T01:19:21.066Z,99360.72
2022-09-07T01:20:19.057Z,99360.21
2022-09-07T01:21:19.065Z,99357.70
2022-09-07T01:22:19.070Z,99359.38
2022-09-07T01:23:19.057Z,99359.11
2022-09-07T01:24:21.055Z,99357.64
2022-09-07T01:25:19.058Z,99354.52
2022-09-07T01:26:19.065Z,99353.49
2022-09-07T01:27:19.058Z,99351.20
2022-09-07T01:28:20.059Z,99353.45
2022-09-07T01:29:18.055Z,99352.18
2022-09-07T01:30:14.057Z,99351.96
2022-09-07T01:31:19.095Z,99354.27
2022-09-07T01:32:21.060Z,99351.33
2022-09-07T01:33:21.057Z,99352.51
2022-09-07T01:34:19.055Z,99348.20
2022-09-07T01:35:17.059Z,99353.36
2022-09-07T01:36:19.072Z,99350.33
2022-09-07T01:37:19.059Z,99350.27
2022-09-07T01:38:19.058Z,99348.78
2022-09-07T01:39:11.060Z,99350.99
2022-09-07T01:40:21.077Z,99347.11
2022-09-07T01:41:19.060Z,99346.98
2022-09-07T01:42:12.059Z,99347.40
2022-09-07T01:43:18.057Z,99346.82
2022-09-07T01:44:19.060Z,99348.20
2022-09-07T01:45:13.062Z,99348.74
2022-09-07T01:46:18.121Z,99347.73
2022-09-07T01:47:17.059Z,99349.05
2022-09-07T01:48:14.062Z,99347.46
2022-09-07T01:49:19.073Z,99350.89
2022-09-07T01:50:19.065Z,99347.85
2022-09-07T01:51:12.058Z,99348.82
2022-09-07T01:52:16.065Z,99346.59
2022-09-07T01:53:19.074Z,99348.27
2022-09-07T01:54:17.062Z,99347.21
2022-09-07T01:55:17.063Z,99348.06
2022-09-07T01:56:17.061Z,99348.14
2022-09-07T01:57:18.071Z,99349.15
2022-09-07T01:58:21.062Z,99347.93
2022-09-07T01:59:19.061Z,99342.38
2022-09-07T02:00:15.059Z,99340.60
2022-09-07T02:01:13.161Z,99336.66
2022-09-07T02:02:17.133Z,99332.21
2022-09-07T02:03:19.062Z,99331.80
2022-09-07T02:04:14.065Z,99333.18
2022-09-07T02:05:19.071Z,99334.95
2022-09-07T02:06:21.063Z,99332.59
2022-09-07T02:07:21.070Z,99335.32
2022-09-07T02:08:19.062Z,99332.27
2022-09-07T02:09:19.061Z,99338.06
2022-09-07T02:10:18.062Z,99342.82
2022-09-07T02:11:14.073Z,99343.22
2022-09-07T02:12:16.063Z,99348.08
2022-09-07T02:13:16.066Z,99341.31
2022-09-07T02:14:19.072Z,99339.86
2022-09-07T02:15:15.075Z,99341.14
2022-09-07T02:16:19.104Z,99342.05
2022-09-07T02:17:19.061Z,99336.82
2022-09-07T02:18:11.066Z,99340.86
2022-09-07T02:19:14.075Z,99336.40
2022-09-07T02:20:17.066Z,99338.42
2022-09-07T02:21:11.057Z,99341.43
2022-09-07T02:22:15.058Z,99341.17
2022-09-07T02:23:17.059Z,99340.84
2022-09-07T02:24:19.060Z,99335.20
2022-09-07T02:25:12.058Z,99336.77
2022-09-07T02:26:16.063Z,99333.66
2022-09-07T02:27:17.060Z,99338.19
2022-09-07T02:28:12.061Z,99332.86
2022-09-07T02:29:11.058Z,99337.64
2022-09-07T02:30:11.061Z,99332.31
2022-09-07T02:31:11.119Z,99332.98
2022-09-07T02:32:11.058Z,99331.48
2022-09-07T02:33:11.061Z,99332.20
2022-09-07T02:34:11.069Z,99330.30
2022-09-07T02:35:11.058Z,99329.30
2022-09-07T02:36:11.061Z,99335.32
2022-09-07T02:37:11.067Z,99332.71
2022-09-07T02:38:11.061Z,99332.86
2022-09-07T02:39:11.056Z,99328.83
2022-09-07T02:40:11.121Z,99331.31
2022-09-07T02:41:19.064Z,99330.09
2022-09-07T02:42:11.060Z,99326.18
2022-09-07T02:43:11.063Z,99327.07
2022-09-07T02:44:19.067Z,99321.52
2022-09-07T02:45:11.060Z,99318.27
2022-09-07T02:46:21.143Z,99318.52
2022-09-07T02:47:19.060Z,99318.11
2022-09-07T02:48:21.068Z,99320.94
2022-09-07T02:49:19.063Z,99319.76
2022-09-07T02:50:19.064Z,99324.91
2022-09-07T02:51:21.059Z,99322.98
2022-09-07T02:52:23.062Z,99321.09
2022-09-07T02:53:19.065Z,99320.20
2022-09-07T02:54:19.075Z,99323.66
2022-09-07T02:55:19.063Z,99325.94
2022-09-07T02:56:21.060Z,99326.84
2022-09-07T02:57:19.060Z,99327.13
2022-09-07T02:58:19.061Z,99323.89
2022-09-07T02:59:19.074Z,99325.50
2022-09-07T03:00:15.063Z,99328.62
2022-09-07T03:01:19.139Z,99328.91
2022-09-07T03:02:19.115Z,99326.08
2022-09-07T03:03:18.072Z,99327.92
2022-09-07T03:04:19.067Z,99331.28
2022-09-07T03:05:19.067Z,99327.23
2022-09-07T03:06:17.064Z,99325.77
2022-09-07T03:07:16.067Z,99328.66
2022-09-07T03:08:21.075Z,99326.83
2022-09-07T03:09:17.072Z,99327.20
2022-09-07T03:10:11.064Z,99328.15
2022-09-07T03:11:11.061Z,99330.05
2022-09-07T03:12:11.067Z,99332.29
2022-09-07T03:13:15.066Z,99334.75
2022-09-07T03:14:17.077Z,99334.76
2022-09-07T03:15:14.068Z,99331.76
2022-09-07T03:16:14.170Z,99333.11
2022-09-07T03:17:11.066Z,99331.72
2022-09-07T03:18:11.063Z,99329.31
2022-09-07T03:19:11.066Z,99330.72
2022-09-07T03:20:11.074Z,99330.81
2022-09-07T03:21:11.057Z,99330.32
2022-09-07T03:22:11.060Z,99331.77
2022-09-07T03:23:11.065Z,99334.68
2022-09-07T03:24:11.057Z,99339.25
2022-09-07T03:25:11.059Z,99341.77
2022-09-07T03:26:19.071Z,99342.66
2022-09-07T03:27:11.061Z,99343.28
2022-09-07T03:28:11.060Z,99343.34
2022-09-07T03:29:11.058Z,99342.11
2022-09-07T03:30:11.063Z,99340.76
2022-09-07T03:31:11.122Z,99340.28
2022-09-07T03:32:11.059Z,99341.24
2022-09-07T03:33:11.065Z,99339.93
2022-09-07T03:34:11.059Z,99342.87
2022-09-07T03:35:11.059Z,99340.91
2022-09-07T03:36:11.061Z,99341.90
2022-09-07T03:37:11.059Z,99343.14
2022-09-07T03:38:11.059Z,99340.17
2022-09-07T03:39:11.061Z,99342.52
2022-09-07T03:40:11.182Z,99339.14
2022-09-07T03:41:11.062Z,99339.45
2022-09-07T03:42:11.061Z,99340.05
2022-09-07T03:43:11.060Z,99338.20
2022-09-07T03:44:11.062Z,99339.77
2022-09-07T03:45:11.067Z,99336.34
2022-09-07T03:46:11.132Z,99335.27
2022-09-07T03:47:11.062Z,99338.67
2022-09-07T03:48:11.073Z,99337.20
2022-09-07T03:49:11.060Z,99336.53
2022-09-07T03:50:11.062Z,99338.86
2022-09-07T03:51:11.074Z,99337.09
2022-09-07T03:52:11.162Z,99336.78
2022-09-07T03:53:11.062Z,99337.67
2022-09-07T03:54:11.070Z,99332.74
2022-09-07T03:55:11.063Z,99334.53
2022-09-07T03:56:12.065Z,99335.00
2022-09-07T03:57:11.069Z,99326.29
2022-09-07T03:58:11.068Z,99325.04
2022-09-07T03:59:11.060Z,99322.88
2022-09-07T04:00:11.063Z,99317.73
2022-09-07T04:01:11.088Z,99317.15
2022-09-07T04:02:11.100Z,99317.11
2022-09-07T04:03:11.063Z,99315.22
2022-09-07T04:04:11.064Z,99316.12
2022-09-07T04:05:11.062Z,99318.98
2022-09-07T04:06:11.064Z,99316.94
2022-09-07T04:07:11.072Z,99318.73
2022-09-07T04:08:11.063Z,99319.52
2022-09-07T04:09:12.066Z,99320.44
2022-09-07T04:10:11.066Z,99317.31
2022-09-07T04:11:15.067Z,99321.39
2022-09-07T04:12:11.064Z,99319.25
2022-09-07T04:13:11.066Z,99320.84
2022-09-07T04:14:11.066Z,99322.84
2022-09-07T04:15:11.063Z,99323.06
2022-09-07T04:16:18.126Z,99319.71
2022-09-07T04:17:11.096Z,99325.74
2022-09-07T04:18:11.068Z,99322.86
2022-09-07T04:19:11.062Z,99324.28
2022-09-07T04:20:11.070Z,99328.18
2022-09-07T04:21:11.059Z,99328.43
2022-09-07T04:22:11.057Z,99326.84
2022-09-07T04:23:11.059Z,99327.16
2022-09-07T04:24:11.061Z,99329.89
2022-09-07T04:25:11.057Z,99329.26
2022-09-07T04:26:18.058Z,99330.00
2022-09-07T04:27:11.058Z,99326.03
2022-09-07T04:28:11.062Z,99329.12
2022-09-07T04:29:11.059Z,99328.56
2022-09-07T04:30:11.063Z,99327.62
2022-09-07T04:31:11.143Z,99330.51
2022-09-07T04:32:15.501Z,99330.94
2022-09-07T04:33:11.061Z,99327.16
2022-09-07T04:34:11.067Z,99326.76
2022-09-07T04:35:11.071Z,99331.04
2022-09-07T04:36:11.057Z,99326.22
2022-09-07T04:37:11.090Z,99326.34
2022-09-07T04:38:13.061Z,99321.95
2022-09-07T04:39:11.058Z,99320.70
2022-09-07T04:40:11.126Z,99325.26
2022-09-07T04:41:16.062Z,99330.52
2022-09-07T04:42:11.062Z,99331.72
2022-09-07T04:43:12.058Z,99328.19
2022-09-07T04:44:13.694Z,99324.95
2022-09-07T04:45:13.103Z,99326.15
2022-09-07T04:46:16.147Z,99326.27
2022-09-07T04:47:11.065Z,99324.62
2022-09-07T04:48:11.072Z,99328.51
2022-09-07T04:49:11.061Z,99324.43
2022-09-07T04:50:11.064Z,99327.32
2022-09-07T04:51:11.070Z,99321.89
2022-09-07T04:52:11.065Z,99321.92
2022-09-07T04:53:11.065Z,99322.27
2022-09-07T04:54:11.065Z,99322.39
2022-09-07T04:55:11.068Z,99318.34
2022-09-07T04:56:15.012Z,99316.27
2022-09-07T04:57:13.067Z,99316.01
2022-09-07T04:58:11.065Z,99311.84
2022-09-07T04:59:11.061Z,99313.12
2022-09-07T05:00:13.065Z,99315.73
2022-09-07T05:01:11.145Z,99314.06
2022-09-07T05:02:11.226Z,99315.52
2022-09-07T05:03:11.067Z,99315.28
2022-09-07T05:04:11.079Z,99318.48
2022-09-07T05:05:11.068Z,99319.34
2022-09-07T05:06:11.061Z,99316.43
2022-09-07T05:07:11.143Z,99320.88
2022-09-07T05:08:11.066Z,99322.24
2022-09-07T05:09:11.065Z,99322.54
2022-09-07T05:10:11.067Z,99318.32
2022-09-07T05:11:11.066Z,99325.07
2022-09-07T05:12:11.065Z,99320.72
2022-09-07T05:13:11.065Z,99322.40
2022-09-07T05:14:11.075Z,99322.55
2022-09-07T05:15:11.063Z,99321.91
2022-09-07T05:16:11.115Z,99320.86
2022-09-07T05:17:11.068Z,99323.42
2022-09-07T05:18:11.068Z,99320.83
2022-09-07T05:19:13.064Z,99321.77
2022-09-07T05:20:11.065Z,99326.58
2022-09-07T05:21:15.062Z,99327.45
2022-09-07T05:22:11.058Z,99325.82
2022-09-07T05:23:11.058Z,99328.47
2022-09-07T05:24:11.060Z,99329.50
2022-09-07T05:25:11.059Z,99329.91
2022-09-07T05:26:11.060Z,99324.64
2022-09-07T05:27:11.069Z,99331.98
2022-09-07T05:28:11.059Z,99327.81
2022-09-07T05:31:18.955Z,99324.52
2022-09-07T05:32:11.060Z,99326.32
2022-09-07T05:33:11.065Z,99320.41
2022-09-07T05:34:32.998Z,99322.18
2022-09-07T05:35:13.066Z,99320.00
2022-09-07T05:36:11.063Z,99320.84
2022-09-07T05:37:11.063Z,99322.80
2022-09-07T05:38:11.070Z,99322.64
2022-09-07T05:39:11.062Z,99325.21
2022-09-07T05:40:11.106Z,99321.93
2022-09-07T05:41:15.070Z,99322.88
2022-09-07T05:42:11.062Z,99317.50
2022-09-07T05:43:11.063Z,99321.69
2022-09-07T05:45:13.093Z,99327.03
2022-09-07T05:46:11.143Z,99326.64
2022-09-07T05:47:11.088Z,99326.95
2022-09-07T05:48:11.070Z,99326.73
2022-09-07T05:49:11.066Z,99328.82
2022-09-07T05:50:11.061Z,99329.64
2022-09-07T05:51:11.065Z,99323.18
2022-09-07T05:52:11.065Z,99325.96
2022-09-07T05:53:11.065Z,99321.22
2022-09-07T05:54:11.071Z,99320.89
2022-09-07T05:55:28.944Z,99326.27
2022-09-07T05:56:13.626Z,99321.88
2022-09-07T05:57:12.066Z,99321.27
2022-09-07T05:58:11.073Z,99320.21
2022-09-07T05:59:11.065Z,99322.47
2022-09-07T06:00:11.062Z,99320.53
2022-09-07T06:01:11.068Z,99321.14
2022-09-07T06:02:13.161Z,99322.57
2022-09-07T06:03:11.245Z,99328.91
2022-09-07T06:04:11.067Z,99330.58
2022-09-07T06:05:11.075Z,99332.66
2022-09-07T06:06:14.064Z,99334.21
2022-09-07T06:07:21.711Z,99340.64
2022-09-07T06:08:13.091Z,99336.80
2022-09-07T06:09:11.075Z,99337.10
2022-09-07T06:11:13.077Z,99339.48
2022-09-07T06:12:11.069Z,99336.87
2022-09-07T06:13:11.068Z,99340.34
2022-09-07T06:14:11.066Z,99342.44
2022-09-07T06:15:11.066Z,99342.66
2022-09-07T06:16:11.105Z,99347.65
2022-09-07T06:17:11.067Z,99348.38
2022-09-07T06:18:11.067Z,99351.68
2022-09-07T06:19:11.071Z,99350.54
2022-09-07T06:20:11.067Z,99351.08
2022-09-07T06:21:11.061Z,99352.06
2022-09-07T06:22:11.070Z,99350.01
2022-09-07T06:23:11.063Z,99347.94
2022-09-07T06:24:11.060Z,99350.82
2022-09-07T06:25:11.063Z,99346.23
2022-09-07T06:26:11.062Z,99348.88
2022-09-07T06:27:11.061Z,99349.20
2022-09-07T06:28:11.062Z,99350.00
2022-09-07T06:29:11.069Z,99348.55
2022-09-07T06:30:11.063Z,99344.39
2022-09-07T06:31:11.095Z,99346.57
2022-09-07T06:33:14.325Z,99344.08
2022-09-07T06:34:11.061Z,99345.33
2022-09-07T06:35:11.065Z,99346.37
2022-09-07T06:36:14.065Z,99351.41
2022-09-07T06:37:11.061Z,99346.93
2022-09-07T06:38:11.063Z,99347.64
2022-09-07T06:39:11.070Z,99349.79
2022-09-07T06:40:11.150Z,99349.27
2022-09-07T06:42:13.082Z,99349.19
2022-09-07T06:43:11.064Z,99353.03
2022-09-07T06:44:11.064Z,99345.23
2022-09-07T06:45:11.610Z,99346.98
2022-09-07T06:47:13.341Z,99342.56
2022-09-07T06:48:11.067Z,99342.36
2022-09-07T06:49:11.073Z,99342.12
2022-09-07T06:50:11.066Z,99341.66
2022-09-07T06:51:18.062Z,99339.65
2022-09-07T06:52:11.067Z,99342.65
2022-09-07T06:53:34.975Z,99342.00
2022-09-07T06:55:13.085Z,99339.22
2022-09-07T06:56:12.068Z,99340.82
2022-09-07T06:57:12.066Z,99340.88
2022-09-07T06:58:11.065Z,99339.21
2022-09-07T06:59:11.068Z,99340.08
2022-09-07T07:00:11.067Z,99343.49
2022-09-07T07:01:18.126Z,99343.60
2022-09-07T07:02:13.066Z,99345.72
2022-09-07T07:03:11.159Z,99345.50
2022-09-07T07:04:11.069Z,99347.54
2022-09-07T07:05:11.064Z,99349.16
2022-09-07T07:06:11.075Z,99348.39
2022-09-07T07:07:13.069Z,99347.52
2022-09-07T07:08:11.065Z,99347.25
2022-09-07T07:09:11.068Z,99348.42
2022-09-07T07:10:11.068Z,99352.43
2022-09-07T07:11:14.069Z,99348.04
2022-09-07T07:12:11.135Z,99349.50
2022-09-07T07:14:16.270Z,99352.21
2022-09-07T07:15:11.064Z,99353.38
2022-09-07T07:16:16.115Z,99351.20
2022-09-07T07:17:11.071Z,99352.80
2022-09-07T07:18:20.741Z,99352.45
2022-09-07T07:19:13.075Z,99354.12
2022-09-07T07:20:11.077Z,99353.34
2022-09-07T07:21:13.061Z,99352.64
2022-09-07T07:22:29.563Z,99355.46
2022-09-07T07:23:13.085Z,99357.55
2022-09-07T07:24:11.064Z,99358.68
2022-09-07T07:25:11.056Z,99362.16
2022-09-07T07:26:15.060Z,99358.68
2022-09-07T07:27:11.064Z,99358.55
2022-09-07T07:29:15.912Z,99356.75
2022-09-07T07:30:13.077Z,99362.25
2022-09-07T07:31:13.159Z,99360.72
2022-09-07T07:32:11.062Z,99361.32
2022-09-07T07:33:11.092Z,99357.72
2022-09-07T07:34:11.119Z,99360.98
2022-09-07T07:35:11.061Z,99359.20
2022-09-07T07:36:19.061Z,99357.00
2022-09-07T07:37:11.062Z,99356.23
2022-09-07T07:42:13.341Z,99355.81
2022-09-07T07:43:11.061Z,99352.96
2022-09-07T07:44:11.061Z,99352.12
2022-09-07T07:46:15.139Z,99352.15
2022-09-07T07:47:11.060Z,99353.17
2022-09-07T07:48:13.064Z,99355.48
2022-09-07T07:49:11.091Z,99356.59
2022-09-07T07:50:33.759Z,99347.63
2022-09-07T07:51:13.341Z,99355.51
2022-09-07T07:53:42.296Z,99352.70
2022-09-07T07:54:13.078Z,99349.70
2022-09-07T07:56:13.085Z,99348.04
2022-09-07T07:57:11.066Z,99344.72
2022-09-07T07:58:11.060Z,99349.51
2022-09-07T07:59:15.509Z,99350.85
2022-09-07T08:00:11.065Z,99352.38
2022-09-07T08:01:12.120Z,99353.60
2022-09-07T08:02:15.285Z,99354.86
2022-09-07T08:03:11.067Z,99359.22
2022-09-07T08:04:11.068Z,99359.95
2022-09-07T08:05:11.065Z,99361.28
2022-09-07T08:06:11.073Z,99361.68
2022-09-07T08:07:11.404Z,99360.95
2022-09-07T08:08:11.065Z,99368.87
2022-09-07T08:09:11.072Z,99367.75
2022-09-07T08:10:11.067Z,99362.76
2022-09-07T08:11:12.065Z,99363.12
2022-09-07T08:12:12.072Z,99368.81
2022-09-07T08:13:11.067Z,99373.04
2022-09-07T08:14:11.064Z,99373.06
2022-09-07T08:15:11.067Z,99373.60
2022-09-07T08:16:11.118Z,99375.95
2022-09-07T08:17:11.065Z,99375.57
2022-09-07T08:18:11.069Z,99371.04
2022-09-07T08:19:11.076Z,99369.96
2022-09-07T08:20:11.065Z,99371.16
2022-09-07T08:21:12.059Z,99368.04
2022-09-07T08:22:11.067Z,99365.58
2022-09-07T08:23:11.061Z,99366.20
2022-09-07T08:24:11.060Z,99366.52
2022-09-07T08:25:11.060Z,99371.75
2022-09-07T08:26:11.060Z,99372.51
2022-09-07T08:27:11.058Z,99375.94
2022-09-07T08:28:11.060Z,99374.18
2022-09-07T08:29:11.061Z,99376.38
2022-09-07T08:30:11.060Z,99375.61
2022-09-07T08:31:11.119Z,99377.26
2022-09-07T08:32:11.068Z,99376.57
2022-09-07T08:33:11.057Z,99373.13
2022-09-07T08:34:11.061Z,99371.83
2022-09-07T08:35:11.062Z,99376.52
2022-09-07T08:36:15.060Z,99370.18
2022-09-07T08:37:11.062Z,99373.48
2022-09-07T08:38:11.070Z,99378.26
2022-09-07T08:39:11.063Z,99373.98
2022-09-07T08:40:16.143Z,99377.15
2022-09-07T08:41:21.068Z,99368.82
2022-09-07T08:42:21.063Z,99372.65
2022-09-07T08:43:19.063Z,99372.58
2022-09-07T08:44:21.063Z,99377.33
2022-09-07T08:45:21.065Z,99378.28
2022-09-07T08:46:19.092Z,99371.25
2022-09-07T08:47:19.071Z,99377.03
2022-09-07T08:48:14.065Z,99371.13
2022-09-07T08:49:21.061Z,99365.78
2022-09-07T08:50:21.061Z,99370.48
2022-09-07T08:51:24.197Z,99368.90
2022-09-07T08:52:17.062Z,99368.30
2022-09-07T08:53:13.097Z,99371.68
2022-09-07T08:54:12.064Z,99369.62
2022-09-07T08:55:21.062Z,99370.40
2022-09-07T08:56:18.067Z,99367.67
2022-09-07T08:57:23.134Z,99370.04
2022-09-07T08:58:45.138Z,99365.84
2022-09-07T08:59:21.329Z,99371.71
2022-09-07T09:00:14.063Z,99368.50
2022-09-07T09:01:33.635Z,99370.04
2022-09-07T09:02:35.161Z,99366.62
2022-09-07T09:03:30.092Z,99371.58
2022-09-07T09:04:21.674Z,99366.31
2022-09-07T09:05:21.274Z,99361.79
2022-09-07T09:06:19.190Z,99360.61
2022-09-07T09:07:19.068Z,99362.82
2022-09-07T09:08:21.068Z,99357.93
2022-09-07T09:09:21.080Z,99362.09
2022-09-07T09:10:19.067Z,99365.09
2022-09-07T09:11:21.064Z,99361.53
2022-09-07T09:12:19.063Z,99360.23
2022-09-07T09:13:16.066Z,99363.34
2022-09-07T09:14:21.141Z,99361.63
2022-09-07T09:15:19.068Z,99362.06
2022-09-07T09:16:17.140Z,99361.00
2022-09-07T09:17:16.064Z,99361.55
2022-09-07T09:18:21.070Z,99359.82
2022-09-07T09:19:21.075Z,99358.12
2022-09-07T09:20:19.058Z,99360.33
2022-09-07T09:21:17.059Z,99359.66
2022-09-07T09:22:17.056Z,99359.89
2022-09-07T09:23:14.058Z,99358.52
2022-09-07T09:24:18.060Z,99365.83
2022-09-07T09:25:19.058Z,99359.97
2022-09-07T09:26:15.057Z,99356.57
2022-09-07T09:27:11.063Z,99357.87
2022-09-07T09:28:13.060Z,99359.94
2022-09-07T09:29:18.057Z,99356.71
2022-09-07T09:30:15.132Z,99358.99
2022-09-07T09:31:18.101Z,99360.56
2022-09-07T09:32:19.060Z,99357.43
2022-09-07T09:33:19.060Z,99355.52
2022-09-07T09:34:15.064Z,99358.35
2022-09-07T09:35:21.068Z,99353.53
2022-09-07T09:36:19.062Z,99356.94
2022-09-07T09:37:13.062Z,99351.39
2022-09-07T09:38:19.057Z,99354.13
2022-09-07T09:39:19.062Z,99354.07
2022-09-07T09:40:19.125Z,99354.45
2022-09-07T09:41:15.064Z,99353.21
2022-09-07T09:42:15.060Z,99359.66
2022-09-07T09:43:19.063Z,99350.72
2022-09-07T09:44:15.061Z,99353.70
2022-09-07T09:45:18.066Z,99354.67
2022-09-07T09:46:19.193Z,99350.78
2022-09-07T09:47:32.261Z,99352.43
2022-09-07T09:48:13.086Z,99354.13
2022-09-07T09:49:17.069Z,99353.93
2022-09-07T09:52:42.245Z,99348.72
2022-09-07T09:53:21.072Z,99343.99
2022-09-07T09:54:19.060Z,99349.03
2022-09-07T09:55:33.866Z,99352.79
2022-09-07T09:56:13.058Z,99349.52
2022-09-07T09:57:17.066Z,99341.57
2022-09-07T10:00:27.910Z,99342.16
2022-09-07T10:01:22.352Z,99337.51
2022-09-07T10:04:24.627Z,99332.30
2022-09-07T10:05:21.063Z,99339.68
2022-09-07T10:06:16.063Z,99339.77
2022-09-07T10:07:21.068Z,99336.36
2022-09-07T10:08:21.075Z,99341.74
2022-09-07T10:09:17.068Z,99342.41
2022-09-07T10:10:15.064Z,99341.16
2022-09-07T10:11:11.062Z,99346.15
2022-09-07T10:12:19.076Z,99346.22
2022-09-07T10:13:20.068Z,99346.22
2022-09-07T10:14:18.068Z,99347.05
2022-09-07T10:15:19.067Z,99341.96
2022-09-07T10:16:11.134Z,99341.46
2022-09-07T10:17:21.074Z,99340.16
2022-09-07T10:18:21.077Z,99340.46
2022-09-07T10:19:19.068Z,99340.96
2022-09-07T10:20:19.056Z,99337.70
2022-09-07T10:21:19.062Z,99341.20
2022-09-07T10:22:19.057Z,99343.46
2022-09-07T10:23:19.066Z,99339.57
2022-09-07T10:24:15.067Z,99337.50
2022-09-07T10:25:19.060Z,99336.57
2022-09-07T10:26:19.058Z,99338.10
2022-09-07T10:27:19.060Z,99339.53
2022-09-07T10:28:21.284Z,99331.14
2022-09-07T10:29:19.072Z,99330.49
2022-09-07T10:30:16.061Z,99330.66
2022-09-07T10:31:21.102Z,99327.06
2022-09-07T10:32:19.055Z,99332.06
2022-09-07T10:33:22.059Z,99328.33
2022-09-07T10:34:26.462Z,99331.99
2022-09-07T10:35:21.135Z,99327.17
2022-09-07T10:36:21.062Z,99331.57
2022-09-07T10:37:11.059Z,99327.68
2022-09-07T10:38:18.060Z,99323.29
2022-09-07T10:39:16.083Z,99320.66
2022-09-07T10:40:21.144Z,99330.01
2022-09-07T10:41:11.062Z,99327.59
2022-09-07T10:42:19.058Z,99324.85
2022-09-07T10:43:21.793Z,99325.16
2022-09-07T10:44:17.069Z,99325.14
2022-09-07T10:45:18.065Z,99316.86
2022-09-07T10:47:21.119Z,99319.27
2022-09-07T10:48:19.062Z,99315.48
2022-09-07T10:49:17.070Z,99316.01
2022-09-07T10:50:22.788Z,99314.32
2022-09-07T10:51:23.353Z,99316.14
2022-09-07T10:52:23.063Z,99310.73
2022-09-07T10:53:40.030Z,99312.47
2022-09-07T10:54:32.224Z,99316.13
2022-09-07T10:55:23.066Z,99313.55
2022-09-07T10:56:18.062Z,99311.33
2022-09-07T10:57:19.059Z,99312.27
2022-09-07T10:58:19.398Z,99313.40
2022-09-07T10:59:19.078Z,99314.25
2022-09-07T11:00:16.065Z,99310.44
2022-09-07T11:01:19.117Z,99307.38
2022-09-07T11:02:21.122Z,99309.21
2022-09-07T11:03:26.651Z,99308.99
2022-09-07T11:04:19.066Z,99304.11
2022-09-07T11:05:19.066Z,99304.81
2022-09-07T11:06:19.072Z,99305.96
2022-09-07T11:07:19.062Z,99303.34
2022-09-07T11:08:21.066Z,99306.10
2022-09-07T11:09:19.861Z,99302.01
2022-09-07T11:10:19.067Z,99303.81
2022-09-07T11:12:00.693Z,99303.88
2022-09-07T11:12:23.790Z,99304.01
2022-09-07T11:13:17.095Z,99309.14
2022-09-07T11:14:15.068Z,99306.78
2022-09-07T11:15:17.069Z,99308.08
2022-09-07T11:17:18.073Z,99300.55
2022-09-07T11:18:17.065Z,99303.91
2022-09-07T11:19:36.981Z,99306.17
2022-09-07T11:20:21.099Z,99303.58
2022-09-07T11:21:14.650Z,99304.11
2022-09-07T11:22:22.058Z,99305.64
2022-09-07T11:23:19.053Z,99307.24
2022-09-07T11:24:20.056Z,99304.38
2022-09-07T11:25:31.622Z,99305.28
2022-09-07T11:26:21.086Z,99297.25
2022-09-07T11:27:18.056Z,99303.07
2022-09-07T11:28:17.055Z,99295.64
2022-09-07T11:29:30.844Z,99296.89
2022-09-07T11:30:21.081Z,99297.04
2022-09-07T11:31:21.091Z,99295.09
2022-09-07T11:32:17.059Z,99292.39
2022-09-07T11:33:19.057Z,99291.02
2022-09-07T11:34:26.030Z,99290.98
2022-09-07T11:35:21.077Z,99291.21
2022-09-07T11:36:18.068Z,99289.57
2022-09-07T11:37:20.061Z,99283.52
2022-09-07T11:38:21.059Z,99292.55
2022-09-07T11:39:16.056Z,99286.39
2022-09-07T11:40:19.062Z,99289.85
2022-09-07T11:41:19.066Z,99291.51
2022-09-07T11:42:43.696Z,99286.55
2022-09-07T11:43:21.080Z,99286.73
2022-09-07T11:44:19.063Z,99290.77
2022-09-07T11:45:16.067Z,99292.84
2022-09-07T11:46:19.106Z,99281.92
2022-09-07T11:47:17.061Z,99282.21
2022-09-07T11:48:21.061Z,99283.17
2022-09-07T11:49:19.069Z,99281.50
2022-09-07T11:50:18.063Z,99281.04
2022-09-07T11:51:19.060Z,99280.07
2022-09-07T11:52:19.059Z,99280.66
2022-09-07T11:53:17.062Z,99277.42
2022-09-07T11:54:19.064Z,99272.99
2022-09-07T11:55:19.064Z,99271.87
2022-09-07T11:56:19.062Z,99272.07
2022-09-07T11:57:19.064Z,99272.75
2022-09-07T11:58:19.072Z,99272.29
2022-09-07T11:59:21.066Z,99269.89
2022-09-07T12:00:20.064Z,99268.73
2022-09-07T12:01:19.064Z,99267.66
2022-09-07T12:02:32.241Z,99268.05
2022-09-07T12:03:22.812Z,99263.21
2022-09-07T12:04:23.149Z,99270.08
2022-09-07T12:05:19.067Z,99259.75
2022-09-07T12:06:19.069Z,99261.77
2022-09-07T12:07:21.067Z,99263.32
2022-09-07T12:08:21.065Z,99261.48
2022-09-07T12:09:17.067Z,99262.30